createdAt,value
2022-11-23T00:01:28.204Z,20.52
2022-11-23T00:03:59.322Z,20.45
2022-11-23T00:06:27.249Z,21.38
2022-11-23T00:08:54.910Z,22.25
2022-11-23T00:11:24.264Z,20.65
2022-11-23T00:13:51.955Z,23.50
2022-11-23T00:16:25.240Z,21.52
2022-11-23T00:19:00.188Z,19.77
2022-11-23T00:21:29.685Z,21.70
2022-11-23T00:23:57.019Z,24.02
2022-11-23T00:26:24.512Z,20.05
2022-11-23T00:28:51.430Z,23.70
2022-11-23T00:31:20.239Z,19.40
2022-11-23T00:33:54.418Z,24.23
2022-11-23T00:36:23.045Z,14.65
2022-11-23T00:38:50.438Z,14.57
2022-11-23T00:41:20.076Z,18.23
2022-11-23T00:43:48.261Z,20.17
2022-11-23T00:46:15.570Z,17.30
2022-11-23T00:48:44.477Z,19.02
2022-11-23T00:51:14.822Z,14.13
2022-11-23T00:53:42.356Z,14.82
2022-11-23T00:56:09.761Z,14.55
2022-11-23T00:58:40.214Z,17.83
2022-11-23T01:01:13.177Z,18.23
2022-11-23T01:03:47.801Z,28.98
2022-11-23T01:06:17.420Z,13.73
2022-11-23T01:08:51.830Z,11.43
2022-11-23T01:11:20.238Z,17.73
2022-11-23T01:13:47.957Z,11.40
2022-11-23T01:16:24.149Z,16.38
2022-11-23T01:19:08.018Z,12.73
2022-11-23T01:21:36.885Z,15.98
2022-11-23T01:24:08.929Z,15.30
2022-11-23T01:26:36.220Z,19.02
2022-11-23T01:29:03.393Z,19.30
2022-11-23T01:31:31.119Z,19.25
2022-11-23T01:34:04.807Z,18.70
2022-11-23T01:36:33.749Z,17.85
2022-11-23T01:39:05.199Z,18.10
2022-11-23T01:41:40.852Z,14.30
2022-11-23T01:44:28.694Z,12.57
2022-11-23T01:47:01.934Z,16.05
2022-11-23T01:49:46.511Z,14.30
2022-11-23T01:52:18.580Z,13.80
2022-11-23T01:54:49.558Z,17.25
2022-11-23T01:57:44.409Z,18.20
2022-11-23T02:00:13.495Z,15.30
2022-11-23T02:02:50.080Z,15.50
2022-11-23T02:05:20.276Z,19.98
2022-11-23T02:07:49.653Z,12.88
2022-11-23T02:10:17.413Z,23.75
2022-11-23T02:12:44.667Z,14.25
2022-11-23T02:15:11.645Z,18.25
2022-11-23T02:17:38.556Z,15.38
2022-11-23T02:20:09.365Z,15.30
2022-11-23T02:22:59.309Z,14.90
2022-11-23T02:25:44.251Z,15.73
2022-11-23T02:28:18.920Z,14.77
2022-11-23T02:30:52.801Z,18.30
2022-11-23T02:33:20.451Z,13.00
2022-11-23T02:35:59.348Z,11.80
2022-11-23T02:38:32.948Z,14.05
2022-11-23T02:41:00.030Z,11.40
2022-11-23T02:43:28.656Z,19.58
2022-11-23T02:45:55.853Z,27.50
2022-11-23T02:48:23.263Z,13.95
2022-11-23T02:50:50.528Z,19.38
2022-11-23T02:53:18.402Z,13.65
2022-11-23T02:55:45.812Z,8.05
2022-11-23T02:58:13.400Z,16.27
2022-11-23T03:00:40.909Z,13.32
2022-11-23T03:03:08.118Z,15.88
2022-11-23T03:05:35.077Z,14.50
2022-11-23T03:08:02.287Z,17.25
2022-11-23T03:10:29.889Z,17.10
2022-11-23T03:12:57.379Z,25.67
2022-11-23T03:15:25.511Z,17.95
2022-11-23T03:17:52.805Z,23.38
2022-11-23T03:20:20.603Z,15.32
2022-11-23T03:22:47.836Z,17.70
2022-11-23T03:25:14.941Z,8.93
2022-11-23T03:27:42.187Z,19.67
2022-11-23T03:30:10.130Z,19.58
2022-11-23T03:32:37.405Z,14.98
2022-11-23T03:35:05.545Z,11.75
2022-11-23T03:37:32.642Z,17.30
2022-11-23T03:39:59.490Z,18.73
2022-11-23T03:42:27.172Z,18.63
2022-11-23T03:44:56.873Z,18.10
2022-11-23T03:47:23.710Z,16.15
2022-11-23T03:49:50.567Z,24.20
2022-11-23T03:52:17.984Z,14.68
2022-11-23T03:54:45.064Z,10.18
2022-11-23T03:57:11.981Z,19.08
2022-11-23T03:59:39.301Z,11.25
2022-11-23T04:02:08.135Z,14.82
2022-11-23T04:04:36.272Z,13.50
2022-11-23T04:07:03.552Z,16.20
2022-11-23T04:09:31.014Z,17.88
2022-11-23T04:11:58.061Z,21.77
2022-11-23T04:14:24.909Z,23.95
2022-11-23T04:16:52.501Z,16.08
2022-11-23T04:19:19.452Z,21.48
2022-11-23T04:21:46.478Z,14.63
2022-11-23T04:24:13.972Z,20.67
2022-11-23T04:26:41.025Z,14.43
2022-11-23T04:29:08.245Z,25.90
2022-11-23T04:31:35.283Z,11.43
2022-11-23T04:34:02.160Z,19.98
2022-11-23T04:36:29.217Z,18.02
2022-11-23T04:38:56.464Z,17.55
2022-11-23T04:41:24.576Z,17.77
2022-11-23T04:43:52.264Z,13.15
2022-11-23T04:46:19.641Z,12.82
2022-11-23T04:48:46.499Z,15.20
2022-11-23T04:51:14.400Z,17.42
2022-11-23T04:53:41.312Z,17.00
2022-11-23T04:56:08.384Z,22.67
2022-11-23T04:58:36.710Z,18.75
2022-11-23T05:01:04.914Z,14.55
2022-11-23T05:03:35.189Z,18.95
2022-11-23T05:06:03.749Z,8.82
2022-11-23T05:08:31.519Z,17.30
2022-11-23T05:10:58.829Z,16.58
2022-11-23T05:13:25.886Z,14.93
2022-11-23T05:15:53.415Z,13.88
2022-11-23T05:18:20.717Z,13.45
2022-11-23T05:20:48.022Z,18.83
2022-11-23T05:23:15.280Z,12.90
2022-11-23T05:25:42.309Z,15.30
2022-11-23T05:28:38.588Z,11.02
2022-11-23T05:31:03.514Z,16.15
2022-11-23T05:33:30.375Z,25.38
2022-11-23T05:35:57.893Z,22.48
2022-11-23T05:38:25.515Z,16.55
2022-11-23T05:40:53.603Z,16.90
2022-11-23T05:43:23.027Z,15.85
2022-11-23T05:45:50.700Z,15.57
2022-11-23T05:48:17.912Z,19.35
2022-11-23T05:50:45.123Z,18.98
2022-11-23T05:53:14.849Z,16.85
2022-11-23T05:55:42.008Z,19.40
2022-11-23T05:58:08.918Z,20.40
2022-11-23T06:00:35.941Z,11.63
2022-11-23T06:03:03.428Z,17.55
2022-11-23T06:05:32.868Z,21.52
2022-11-23T06:08:00.231Z,19.50
2022-11-23T06:10:27.120Z,18.80
2022-11-23T06:12:54.319Z,18.27
2022-11-23T06:15:21.466Z,15.57
2022-11-23T06:17:48.456Z,12.07
2022-11-23T06:20:15.536Z,20.55
2022-11-23T06:22:42.398Z,19.48
2022-11-23T06:25:09.948Z,14.90
2022-11-23T06:27:36.829Z,20.02
2022-11-23T06:30:04.605Z,25.77
2022-11-23T06:32:31.950Z,32.28
2022-11-23T06:35:00.990Z,24.27
2022-11-23T06:37:28.217Z,15.75
2022-11-23T06:39:55.170Z,17.10
2022-11-23T06:42:39.722Z,16.83
2022-11-23T06:45:08.865Z,15.80
2022-11-23T06:47:35.898Z,14.38
2022-11-23T06:50:02.999Z,16.17
2022-11-23T06:52:30.055Z,14.50
2022-11-23T06:54:57.072Z,19.83
2022-11-23T06:57:24.463Z,21.52
2022-11-23T06:59:51.331Z,23.90
2022-11-23T07:02:18.634Z,18.00
2022-11-23T07:04:45.521Z,17.90
2022-11-23T07:07:12.949Z,15.02
2022-11-23T07:09:39.967Z,16.70
2022-11-23T07:12:07.675Z,17.85
2022-11-23T07:14:34.648Z,23.50
2022-11-23T07:17:01.636Z,15.25
2022-11-23T07:19:29.206Z,16.95
2022-11-23T07:21:56.494Z,23.88
2022-11-23T07:24:23.383Z,21.20
2022-11-23T07:26:50.820Z,14.23
2022-11-23T07:29:17.669Z,15.73
2022-11-23T07:31:44.663Z,23.45
2022-11-23T07:34:11.528Z,23.48
2022-11-23T07:36:39.229Z,19.27
2022-11-23T07:39:06.297Z,21.77
2022-11-23T07:41:34.209Z,25.00
2022-11-23T07:44:04.076Z,15.60
2022-11-23T07:46:30.990Z,19.25
2022-11-23T07:49:02.467Z,13.23
2022-11-23T07:51:29.773Z,27.63
2022-11-23T07:53:56.898Z,15.20
2022-11-23T07:56:24.569Z,14.27
2022-11-23T07:58:51.809Z,18.98
2022-11-23T08:01:20.745Z,16.42
2022-11-23T08:03:49.216Z,19.70
2022-11-23T08:06:16.801Z,18.45
2022-11-23T08:08:43.897Z,16.00
2022-11-23T08:11:14.939Z,18.95
2022-11-23T08:13:41.901Z,14.07
2022-11-23T08:16:08.937Z,25.25
2022-11-23T08:18:36.074Z,17.17
2022-11-23T08:21:03.416Z,16.55
2022-11-23T08:23:31.023Z,14.02
2022-11-23T08:25:58.098Z,18.10
2022-11-23T08:28:25.127Z,16.63
2022-11-23T08:30:52.166Z,31.83
2022-11-23T08:33:19.278Z,16.67
2022-11-23T08:35:46.524Z,20.02
2022-11-23T08:38:13.830Z,16.92
2022-11-23T08:40:41.586Z,18.00
2022-11-23T08:43:09.525Z,15.93
2022-11-23T08:45:36.403Z,17.38
2022-11-23T08:48:04.753Z,16.75
2022-11-23T08:50:34.520Z,16.38
2022-11-23T08:53:01.545Z,16.75
2022-11-23T08:55:29.269Z,25.10
2022-11-23T08:57:59.533Z,11.48
2022-11-23T09:00:27.671Z,20.23
2022-11-23T09:02:55.258Z,20.75
2022-11-23T09:05:22.180Z,18.30
2022-11-23T09:07:49.420Z,17.40
2022-11-23T09:10:19.038Z,13.80
2022-11-23T09:12:47.885Z,14.55
2022-11-23T09:15:15.119Z,18.83
2022-11-23T09:17:42.080Z,13.55
2022-11-23T09:20:10.223Z,10.80
2022-11-23T09:22:38.003Z,15.68
2022-11-23T09:25:12.099Z,20.08
2022-11-23T09:27:40.094Z,25.67
2022-11-23T09:30:07.742Z,12.98
2022-11-23T09:32:35.155Z,19.10
2022-11-23T09:35:06.749Z,12.38
2022-11-23T09:37:33.752Z,17.70
2022-11-23T09:40:03.367Z,12.70
2022-11-23T09:43:16.394Z,23.10
2022-11-23T09:46:14.169Z,16.58
2022-11-23T09:48:57.948Z,13.73
2022-11-23T09:51:25.092Z,16.95
2022-11-23T09:54:10.166Z,13.45
2022-11-23T09:56:38.959Z,17.55
2022-11-23T09:59:36.225Z,16.13
2022-11-23T10:02:03.840Z,16.42
2022-11-23T10:04:35.527Z,18.55
2022-11-23T10:07:18.057Z,14.88
2022-11-23T10:10:13.660Z,26.08
2022-11-23T10:13:08.537Z,22.80
2022-11-23T10:15:47.931Z,10.85
2022-11-23T10:18:44.286Z,14.20
2022-11-23T10:21:11.418Z,13.13
2022-11-23T10:23:39.750Z,16.63
2022-11-23T10:26:14.616Z,23.05
2022-11-23T10:28:41.679Z,13.18
2022-11-23T10:31:13.530Z,15.40
2022-11-23T10:33:55.369Z,14.43
2022-11-23T10:36:22.191Z,12.35
2022-11-23T10:38:58.579Z,6.72
2022-11-23T10:41:26.634Z,15.90
2022-11-23T10:44:02.761Z,12.20
2022-11-23T10:46:39.582Z,11.68
2022-11-23T10:49:13.190Z,8.65
2022-11-23T10:51:40.772Z,11.32
2022-11-23T10:54:20.312Z,12.45
2022-11-23T10:56:49.289Z,11.15
2022-11-23T10:59:34.328Z,10.32
2022-11-23T11:02:11.644Z,15.25
2022-11-23T11:04:38.526Z,13.27
2022-11-23T11:07:30.986Z,12.07
2022-11-23T11:10:00.279Z,16.50
2022-11-23T11:12:30.125Z,9.18
2022-11-23T11:15:10.704Z,12.40
2022-11-23T11:17:39.739Z,11.32
2022-11-23T11:20:32.223Z,10.57
2022-11-23T11:23:15.164Z,13.10
2022-11-23T11:25:42.645Z,12.15
2022-11-23T11:28:37.430Z,12.75
2022-11-23T11:31:42.675Z,11.48
2022-11-23T11:34:35.698Z,8.95
2022-11-23T11:37:21.761Z,8.52
2022-11-23T11:39:54.582Z,8.27
2022-11-23T11:42:30.728Z,14.45
2022-11-23T11:45:01.384Z,6.75
2022-11-23T11:47:43.752Z,9.13
2022-11-23T11:50:36.900Z,5.25
2022-11-23T11:53:14.490Z,8.43
2022-11-23T11:55:47.399Z,11.00
2022-11-23T11:58:18.196Z,8.77
2022-11-23T12:00:48.088Z,10.20
2022-11-23T12:03:33.676Z,7.78
2022-11-23T12:06:11.380Z,8.18
2022-11-23T12:08:48.084Z,16.00
2022-11-23T12:11:15.569Z,9.05
2022-11-23T12:13:47.083Z,9.38
2022-11-23T12:16:29.053Z,10.50
2022-11-23T12:19:26.517Z,7.35
2022-11-23T12:22:02.696Z,5.80
2022-11-23T12:25:03.962Z,6.32
2022-11-23T12:27:45.014Z,7.82
2022-11-23T12:30:52.114Z,7.32
2022-11-23T12:33:33.152Z,4.78
2022-11-23T12:36:29.110Z,10.20
2022-11-23T12:39:03.636Z,3.70
2022-11-23T12:41:46.483Z,7.55
2022-11-23T12:44:35.164Z,6.18
2022-11-23T12:47:23.880Z,6.97
2022-11-23T12:50:15.175Z,7.25
2022-11-23T12:53:12.486Z,8.88
2022-11-23T12:56:15.410Z,4.60
2022-11-23T12:58:47.023Z,5.80
2022-11-23T13:01:29.454Z,9.35
2022-11-23T13:04:33.759Z,8.73
2022-11-23T13:07:30.630Z,10.25
2022-11-23T13:10:22.228Z,6.60
2022-11-23T13:13:12.516Z,8.57
2022-11-23T13:15:48.496Z,5.03
2022-11-23T13:18:49.442Z,6.35
2022-11-23T13:21:25.401Z,7.75
2022-11-23T13:23:53.449Z,6.50
2022-11-23T13:26:33.967Z,5.75
2022-11-23T13:29:23.173Z,9.15
2022-11-23T13:32:32.169Z,5.80
2022-11-23T13:34:59.185Z,9.90
2022-11-23T13:37:26.328Z,5.38
2022-11-23T13:39:57.579Z,8.40
2022-11-23T13:42:27.324Z,5.28
2022-11-23T13:45:39.280Z,4.78
2022-11-23T13:48:41.378Z,8.73
2022-11-23T13:51:05.135Z,14.13
2022-11-23T13:53:40.663Z,11.32
2022-11-23T13:56:40.116Z,42.50
2022-11-23T13:59:29.653Z,12.82
2022-11-23T14:02:11.701Z,3.80
2022-11-23T14:04:43.447Z,7.60
2022-11-23T14:07:29.585Z,5.75
2022-11-23T14:10:15.081Z,9.55
2022-11-23T14:13:00.559Z,7.20
2022-11-23T14:15:32.962Z,7.13
2022-11-23T14:18:36.929Z,7.50
2022-11-23T14:21:07.047Z,8.88
2022-11-23T14:23:49.182Z,4.43
2022-11-23T14:26:43.738Z,10.27
2022-11-23T14:29:16.872Z,8.07
2022-11-23T14:32:20.740Z,8.63
2022-11-23T14:35:26.310Z,5.00
2022-11-23T14:37:59.403Z,8.32
2022-11-23T14:40:33.462Z,9.48
2022-11-23T14:43:02.243Z,12.98
2022-11-23T14:45:31.824Z,4.35
2022-11-23T14:48:25.834Z,3.92
2022-11-23T14:51:10.834Z,3.20
2022-11-23T14:53:50.173Z,4.15
2022-11-23T14:56:29.726Z,7.78
2022-11-23T14:59:02.808Z,4.35
2022-11-23T15:01:30.265Z,5.75
2022-11-23T15:04:09.455Z,5.55
2022-11-23T15:06:45.502Z,7.35
2022-11-23T15:09:34.168Z,7.05
2022-11-23T15:12:08.982Z,6.00
2022-11-23T15:14:36.529Z,11.40
2022-11-23T15:17:18.097Z,11.15
2022-11-23T15:19:54.431Z,5.63
2022-11-23T15:22:21.789Z,10.52
2022-11-23T15:24:49.113Z,12.27
2022-11-23T15:27:23.125Z,9.50
2022-11-23T15:29:55.866Z,11.68
2022-11-23T15:32:33.177Z,11.15
2022-11-23T15:35:07.046Z,8.98
2022-11-23T15:37:47.422Z,11.32
2022-11-23T15:40:17.327Z,9.50
2022-11-23T15:42:49.011Z,17.40
2022-11-23T15:45:57.110Z,12.25
2022-11-23T15:48:29.988Z,12.60
2022-11-23T15:50:59.595Z,18.30
2022-11-23T15:53:30.464Z,13.02
2022-11-23T15:56:06.352Z,16.80
2022-11-23T15:58:35.344Z,14.95
2022-11-23T16:01:28.981Z,14.38
2022-11-23T16:04:04.833Z,17.15
2022-11-23T16:06:36.166Z,14.57
2022-11-23T16:09:10.098Z,16.77
2022-11-23T16:11:45.470Z,9.52
2022-11-23T16:14:19.651Z,11.93
2022-11-23T16:17:14.791Z,17.25
2022-11-23T16:19:48.618Z,17.50
2022-11-23T16:22:48.271Z,12.75
2022-11-23T16:25:33.355Z,13.13
2022-11-23T16:28:03.152Z,14.77
2022-11-23T16:30:39.986Z,12.65
2022-11-23T16:33:17.607Z,12.05
2022-11-23T16:35:45.452Z,19.02
2022-11-23T16:38:15.590Z,16.70
2022-11-23T16:40:45.548Z,16.77
2022-11-23T16:43:13.730Z,20.13
2022-11-23T16:45:46.744Z,20.20
2022-11-23T16:48:26.077Z,18.73
2022-11-23T16:50:54.770Z,40.53
2022-11-23T16:53:22.033Z,49.63
2022-11-23T16:55:53.174Z,44.58
2022-11-23T16:58:20.532Z,37.85
2022-11-23T17:00:49.809Z,30.45
2022-11-23T17:03:21.323Z,30.80
2022-11-23T17:05:48.652Z,29.20
2022-11-23T17:08:21.699Z,22.80
2022-11-23T17:10:51.168Z,32.40
2022-11-23T17:13:24.601Z,24.75
2022-11-23T17:15:52.633Z,26.98
2022-11-23T17:18:19.978Z,35.10
2022-11-23T17:20:47.277Z,26.58
2022-11-23T17:23:14.809Z,24.40
2022-11-23T17:25:42.141Z,35.97
2022-11-23T17:28:16.306Z,28.92
2022-11-23T17:30:46.064Z,28.48
2022-11-23T17:33:13.711Z,31.95
2022-11-23T17:35:43.864Z,37.58
2022-11-23T17:38:24.761Z,35.42
2022-11-23T17:40:54.520Z,34.72
2022-11-23T17:43:24.553Z,28.92
2022-11-23T17:45:52.131Z,26.48
2022-11-23T17:48:19.367Z,35.60
2022-11-23T17:50:47.685Z,32.65
2022-11-23T17:53:22.563Z,30.73
2022-11-23T17:55:51.348Z,41.30
2022-11-23T17:58:19.077Z,29.90
2022-11-23T18:00:46.927Z,42.85
2022-11-23T18:03:14.177Z,31.38
2022-11-23T18:05:41.279Z,36.08
2022-11-23T18:08:08.859Z,31.85
2022-11-23T18:10:35.646Z,37.03
2022-11-23T18:13:28.234Z,30.50
2022-11-23T18:16:04.267Z,34.88
2022-11-23T18:18:34.929Z,36.42
2022-11-23T18:21:03.625Z,34.55
2022-11-23T18:23:30.814Z,36.90
2022-11-23T18:26:03.284Z,32.95
2022-11-23T18:28:30.764Z,31.55
2022-11-23T18:30:58.107Z,32.35
2022-11-23T18:33:25.252Z,24.48
2022-11-23T18:35:52.112Z,30.85
2022-11-23T18:38:19.287Z,35.80
2022-11-23T18:40:46.247Z,23.30
2022-11-23T18:43:13.086Z,33.05
2022-11-23T18:45:40.182Z,34.03
2022-11-23T18:48:09.015Z,30.83
2022-11-23T18:50:37.135Z,29.45
2022-11-23T18:53:04.036Z,33.83
2022-11-23T18:55:31.093Z,34.83
2022-11-23T18:57:58.414Z,23.75
2022-11-23T19:00:26.004Z,28.70
2022-11-23T19:02:58.865Z,26.85
2022-11-23T19:05:27.783Z,35.85
2022-11-23T19:07:57.534Z,30.38
2022-11-23T19:10:24.838Z,30.15
2022-11-23T19:12:52.381Z,35.70
2022-11-23T19:15:19.607Z,26.95
2022-11-23T19:17:47.909Z,30.23
2022-11-23T19:20:17.046Z,28.63
2022-11-23T19:22:44.250Z,21.58
2022-11-23T19:25:11.191Z,35.03
2022-11-23T19:27:38.193Z,23.95
2022-11-23T19:30:09.058Z,32.13
2022-11-23T19:32:36.934Z,23.92
2022-11-23T19:35:04.558Z,25.23
2022-11-23T19:37:31.695Z,33.30
2022-11-23T19:39:59.224Z,27.20
2022-11-23T19:42:26.584Z,25.35
2022-11-23T19:44:53.758Z,29.52
2022-11-23T19:47:22.923Z,29.75
2022-11-23T19:49:50.023Z,29.40
2022-11-23T19:52:17.005Z,28.77
2022-11-23T19:54:43.916Z,21.48
2022-11-23T19:57:11.076Z,37.20
2022-11-23T19:59:38.182Z,34.13
2022-11-23T20:02:05.242Z,28.55
2022-11-23T20:04:32.288Z,35.20
2022-11-23T20:06:59.356Z,33.15
2022-11-23T20:09:27.749Z,21.83
2022-11-23T20:11:54.708Z,30.65
2022-11-23T20:14:21.731Z,33.20
2022-11-23T20:16:49.011Z,27.70
2022-11-23T20:19:15.953Z,24.40
2022-11-23T20:21:43.098Z,30.15
2022-11-23T20:24:13.020Z,22.45
2022-11-23T20:26:41.463Z,23.77
2022-11-23T20:29:20.460Z,22.83
2022-11-23T20:31:47.476Z,38.00
2022-11-23T20:34:20.442Z,27.30
2022-11-23T20:36:48.949Z,26.23
2022-11-23T20:39:16.640Z,35.75
2022-11-23T20:41:53.394Z,24.38
2022-11-23T20:44:21.075Z,29.55
2022-11-23T20:47:06.116Z,26.67
2022-11-23T20:49:33.947Z,24.80
2022-11-23T20:52:02.240Z,26.55
2022-11-23T20:54:37.355Z,30.95
2022-11-23T20:57:04.672Z,22.90
2022-11-23T20:59:33.029Z,26.90
2022-11-23T21:02:00.182Z,29.60
2022-11-23T21:04:27.171Z,30.33
2022-11-23T21:06:54.755Z,20.83
2022-11-23T21:09:22.133Z,24.17
2022-11-23T21:12:07.675Z,30.30
2022-11-23T21:14:35.440Z,30.33
2022-11-23T21:17:05.926Z,24.40
2022-11-23T21:19:39.281Z,15.68
2022-11-23T21:22:08.455Z,19.30
2022-11-23T21:24:36.022Z,20.02
2022-11-23T21:27:04.742Z,25.23
2022-11-23T21:29:32.507Z,21.65
2022-11-23T21:32:01.699Z,20.17
2022-11-23T21:34:29.790Z,20.45
2022-11-23T21:36:58.134Z,21.77
2022-11-23T21:39:25.563Z,20.45
2022-11-23T21:41:54.204Z,16.48
2022-11-23T21:44:22.844Z,16.83
2022-11-23T21:46:50.206Z,28.38
2022-11-23T21:49:17.647Z,19.10
2022-11-23T21:51:45.857Z,19.58
2022-11-23T21:54:16.488Z,20.50
2022-11-23T21:56:45.475Z,21.65
2022-11-23T21:59:12.580Z,21.40
2022-11-23T22:01:39.913Z,18.42
2022-11-23T22:04:10.795Z,16.48
2022-11-23T22:06:38.615Z,12.55
2022-11-23T22:09:08.087Z,20.92
2022-11-23T22:11:36.817Z,18.17
2022-11-23T22:14:15.243Z,18.98
2022-11-23T22:16:47.112Z,15.70
2022-11-23T22:19:15.644Z,18.23
2022-11-23T22:21:44.225Z,24.80
2022-11-23T22:24:13.764Z,16.50
2022-11-23T22:26:41.082Z,14.77
2022-11-23T22:29:08.483Z,13.93
2022-11-23T22:31:36.327Z,19.17
2022-11-23T22:34:06.092Z,15.13
2022-11-23T22:36:33.323Z,16.40
2022-11-23T22:39:02.888Z,13.27
2022-11-23T22:41:36.833Z,15.40
2022-11-23T22:44:06.955Z,16.50
2022-11-23T22:46:34.635Z,7.63
2022-11-23T22:49:02.035Z,15.77
2022-11-23T22:51:29.805Z,10.00
2022-11-23T22:53:58.735Z,19.15
2022-11-23T22:56:26.653Z,14.27
2022-11-23T22:58:54.064Z,19.73
2022-11-23T23:01:23.952Z,12.82
2022-11-23T23:03:56.300Z,13.20
2022-11-23T23:06:25.379Z,16.30
2022-11-23T23:09:00.678Z,20.25
2022-11-23T23:11:29.975Z,14.30
2022-11-23T23:13:57.147Z,17.95
2022-11-23T23:16:24.876Z,12.27
2022-11-23T23:18:54.065Z,17.15
2022-11-23T23:21:22.577Z,14.18
2022-11-23T23:23:51.419Z,20.23
2022-11-23T23:26:20.754Z,15.07
2022-11-23T23:28:48.197Z,16.90
2022-11-23T23:31:17.067Z,13.73
2022-11-23T23:33:45.542Z,14.85
2022-11-23T23:36:17.891Z,19.23
2022-11-23T23:38:44.954Z,16.15
2022-11-23T23:41:14.153Z,21.65
2022-11-23T23:43:41.972Z,19.10
2022-11-23T23:46:12.122Z,18.98
2022-11-23T23:48:40.371Z,21.85
2022-11-23T23:51:18.723Z,17.90
2022-11-23T23:53:47.156Z,15.63
2022-11-23T23:56:18.532Z,15.32
2022-11-23T23:58:45.791Z,12.35
